Asotin, Washington
Current Conditions -  °F | °C
As of 5:56 AM on Monday 24 Nov 2014 (Local Time) from KLWS Reporting Station
Clear Clear  
Wind Chill: 39°   Ceiling: Unl
Heat Index: 39°   Visibility: 10mi
Dew Point: 29°   Wind: 0mph
Humidity: 67%   Direction: NA
Pressure: 30.36"   Gusts: NA
Location:  46.34°N, 117.05°W
Report Text: KLWS 241356Z AUTO 00000KT 10SM CLR 04/M02 A3036 RMK AO2 SLP290 T00391017
Loading
Personal Weather Stations






























Interactive Weather Map New forecast layout! Learn more

10-Day Weather Forecast

Advertisements
Track Severe Weather on mobile